Time;durP1;ratioP1;P1;durP2;ratioP2;P2;SDS_P1;SDS_P2;PMS_P1;PMS_P2;Temp;Humidity;BMP_temperature;BMP_pressure;BME280_temperature;BME280_humidity;BME280_pressure;Samples;Min_cycle;Max_cycle;Signal;HPM_P1;HPM_P2
2022/05/08 00:00:41;;;;;;;23.55;2.40;;;6.20;65.60;;;;;;4119258;28;20086;-84
2022/05/08 00:02:42;;;;;;;20.42;2.13;;;6.10;65.50;;;;;;4120544;28;20062;-84
2022/05/08 00:04:43;;;;;;;12.68;2.10;;;6.00;65.60;;;;;;4118968;28;20054;-84
2022/05/08 00:06:44;;;;;;;16.00;2.22;;;6.00;65.60;;;;;;4105528;28;20026;-83
2022/05/08 00:08:44;;;;;;;15.98;2.15;;;6.00;65.60;;;;;;4102911;28;20492;-83
2022/05/08 00:10:45;;;;;;;26.83;3.53;;;6.00;65.70;;;;;;4114074;28;20948;-84
2022/05/08 00:12:46;;;;;;;16.60;2.30;;;6.00;65.70;;;;;;4111283;28;20046;-83
2022/05/08 00:14:46;;;;;;;12.55;1.80;;;6.00;65.70;;;;;;4113586;28;20034;-83
2022/05/08 00:16:47;;;;;;;15.43;2.20;;;6.10;65.90;;;;;;4123197;28;20041;-83
2022/05/08 00:18:48;;;;;;;23.40;2.28;;;6.00;65.90;;;;;;4120264;28;20030;-83
2022/05/08 00:20:48;;;;;;;15.88;2.13;;;6.00;65.90;;;;;;4113610;28;20030;-83
2022/05/08 00:22:49;;;;;;;22.00;2.72;;;6.00;65.80;;;;;;4123061;28;20034;-84
2022/05/08 00:24:50;;;;;;;12.45;2.20;;;6.00;65.80;;;;;;4122552;28;20104;-84
2022/05/08 00:26:50;;;;;;;22.02;2.85;;;5.90;65.80;;;;;;4124641;28;20109;-83
2022/05/08 00:28:51;;;;;;;18.92;2.92;;;6.00;66.00;;;;;;4120713;28;20044;-83
2022/05/08 00:30:52;;;;;;;18.25;2.28;;;5.90;66.00;;;;;;4106532;28;20054;-83
2022/05/08 00:32:52;;;;;;;20.08;2.45;;;5.90;66.10;;;;;;4107252;28;20607;-83
2022/05/08 00:34:53;;;;;;;19.13;2.28;;;5.90;66.20;;;;;;4125140;28;20109;-83
2022/05/08 00:36:54;;;;;;;13.55;2.45;;;5.90;66.20;;;;;;4120239;28;20098;-84
2022/05/08 00:38:57;;;;;;;19.00;2.13;;;5.90;66.20;;;;;;4123113;28;20109;-84
2022/05/08 00:40:58;;;;;;;;;;;5.90;66.30;;;;;;4098969;28;20504;-83
2022/05/08 00:43:28;;;;;;;16.52;2.20;;;5.90;66.40;;;;;;4116681;28;19910;-83
2022/05/08 00:45:29;;;;;;;21.13;2.33;;;5.90;66.20;;;;;;4088892;28;20037;-83
2022/05/08 00:47:30;;;;;;;18.05;2.22;;;5.90;66.10;;;;;;4120293;28;20034;-83
2022/05/08 00:49:31;;;;;;;18.13;2.20;;;5.80;66.20;;;;;;4107703;28;20051;-83
2022/05/08 00:51:33;;;;;;;19.17;2.60;;;5.80;66.40;;;;;;4120032;28;20048;-83
2022/05/08 00:53:36;;;;;;;21.40;2.70;;;5.80;66.40;;;;;;4120377;28;20109;-84
2022/05/08 00:55:36;;;;;;;17.90;2.55;;;5.80;66.90;;;;;;4120034;28;20082;-83
2022/05/08 00:57:42;;;;;;;19.67;2.58;;;5.80;66.90;;;;;;4116115;28;20129;-83
2022/05/08 00:59:42;;;;;;;19.67;2.75;;;5.80;67.00;;;;;;4118063;28;20045;-83
2022/05/08 01:01:43;;;;;;;21.52;2.70;;;5.80;67.10;;;;;;4100064;28;20027;-83
2022/05/08 01:03:45;;;;;;;23.20;2.83;;;5.70;67.20;;;;;;4097972;28;21375;-81
2022/05/08 01:05:46;;;;;;;14.43;2.40;;;5.70;67.30;;;;;;4118376;28;20713;-82
2022/05/08 01:07:47;;;;;;;19.27;3.00;;;5.70;67.50;;;;;;4115986;28;20046;-83
2022/05/08 01:09:50;;;;;;;25.45;2.42;;;5.70;67.50;;;;;;4121386;28;20046;-82
2022/05/08 01:11:51;;;;;;;18.55;2.22;;;5.70;67.80;;;;;;4112112;28;20472;-82
2022/05/08 01:13:51;;;;;;;24.05;3.05;;;5.70;67.70;;;;;;4112674;28;20122;-81
2022/05/08 01:15:54;;;;;;;28.75;2.80;;;5.80;67.90;;;;;;4127542;28;20040;-82
2022/05/08 01:17:55;;;;;;;20.67;2.33;;;5.70;67.80;;;;;;4111869;28;20545;-82
2022/05/08 01:19:56;;;;;;;21.98;2.80;;;5.70;67.90;;;;;;4110432;28;20148;-83
2022/05/08 01:21:57;;;;;;;15.93;2.10;;;5.70;68.00;;;;;;4122688;28;20519;-84
2022/05/08 01:23:57;;;;;;;23.73;2.88;;;5.70;68.20;;;;;;4120409;28;20022;-82
2022/05/08 01:25:58;;;;;;;18.48;2.25;;;5.70;68.30;;;;;;4119748;28;20022;-83
2022/05/08 01:27:59;;;;;;;16.70;2.70;;;5.70;68.30;;;;;;4125803;28;20092;-83
2022/05/08 01:30:00;;;;;;;13.27;2.53;;;5.70;68.30;;;;;;4106083;28;20062;-82
2022/05/08 01:32:01;;;;;;;29.08;2.72;;;5.70;68.30;;;;;;4121340;28;20033;-81
2022/05/08 01:34:01;;;;;;;22.58;3.60;;;5.70;68.50;;;;;;4124267;28;20050;-83
2022/05/08 01:36:02;;;;;;;16.77;2.35;;;5.70;68.40;;;;;;4093254;28;20414;-82
2022/05/08 01:38:05;;;;;;;19.85;2.13;;;5.70;68.40;;;;;;4119039;28;20074;-82
2022/05/08 01:40:07;;;;;;;24.67;2.73;;;5.70;68.60;;;;;;4103572;28;21815;-82
2022/05/08 01:42:08;;;;;;;29.02;2.22;;;5.60;68.50;;;;;;4123367;28;20285;-82
2022/05/08 01:44:08;;;;;;;16.80;2.15;;;5.60;68.50;;;;;;4103485;28;20106;-83
2022/05/08 01:46:11;;;;;;;23.90;2.55;;;5.60;68.40;;;;;;4115342;28;20105;-82
2022/05/08 01:48:25;;;;;;;21.43;2.93;;;5.60;68.40;;;;;;4122821;28;20114;-82
2022/05/08 01:50:26;;;;;;;23.48;3.25;;;5.60;68.50;;;;;;4106443;28;20301;-83
2022/05/08 01:52:27;;;;;;;13.32;2.22;;;5.60;68.70;;;;;;4090582;28;20042;-81
2022/05/08 01:54:27;;;;;;;23.88;3.13;;;5.60;68.70;;;;;;4111112;28;20463;-82
2022/05/08 01:56:28;;;;;;;18.95;3.00;;;5.60;68.80;;;;;;4110748;28;20107;-82
2022/05/08 01:58:29;;;;;;;23.35;3.78;;;5.60;68.90;;;;;;4113524;28;20034;-84
2022/05/08 02:00:31;;;;;;;33.17;2.90;;;5.60;68.80;;;;;;4121773;28;20790;-83
2022/05/08 02:02:32;;;;;;;16.98;2.55;;;5.60;69.80;;;;;;4106395;28;20752;-82
2022/05/08 02:04:33;;;;;;;21.67;3.17;;;5.50;69.00;;;;;;4122865;28;20050;-82
2022/05/08 02:06:33;;;;;;;16.02;2.55;;;5.50;68.90;;;;;;4117861;28;20033;-83
2022/05/08 02:08:34;;;;;;;16.83;2.78;;;5.50;68.90;;;;;;4124261;28;20077;-81
2022/05/08 02:10:35;;;;;;;26.20;2.88;;;5.50;69.00;;;;;;4119091;28;20035;-82
2022/05/08 02:12:38;;;;;;;19.27;2.58;;;5.50;69.10;;;;;;4099036;28;20046;-83
2022/05/08 02:14:41;;;;;;;28.40;2.80;;;5.50;69.10;;;;;;4123658;28;20034;-83
2022/05/08 02:16:42;;;;;;;26.90;3.30;;;5.50;69.10;;;;;;4120675;28;20034;-83
2022/05/08 02:18:43;;;;;;;22.65;2.88;;;5.50;69.10;;;;;;4121314;28;20034;-82
2022/05/08 02:20:43;;;;;;;29.60;3.58;;;5.50;69.20;;;;;;4123888;28;20038;-81
2022/05/08 02:22:44;;;;;;;21.98;2.85;;;5.50;69.10;;;;;;4124554;28;20061;-82
2022/05/08 02:24:45;;;;;;;21.10;2.78;;;5.50;69.20;;;;;;4123994;28;20030;-83
2022/05/08 02:26:45;;;;;;;16.20;2.45;;;5.40;69.20;;;;;;4131273;28;20031;-81
2022/05/08 02:28:46;;;;;;;23.88;2.78;;;5.40;69.00;;;;;;4109726;28;20114;-82
2022/05/08 02:30:47;;;;;;;24.00;2.58;;;5.40;69.10;;;;;;4112384;28;20019;-84
2022/05/08 02:32:51;;;;;;;24.20;3.28;;;5.40;69.10;;;;;;4109384;28;20034;-82
2022/05/08 02:34:51;;;;;;;26.25;3.55;;;5.40;69.10;;;;;;4123288;28;20455;-82
2022/05/08 02:36:52;;;;;;;19.90;2.90;;;5.40;69.10;;;;;;4107004;28;20046;-82
2022/05/08 02:38:53;;;;;;;20.73;2.50;;;5.40;69.10;;;;;;4119015;28;20033;-83
2022/05/08 02:40:53;;;;;;;32.13;3.17;;;5.40;69.00;;;;;;4122943;28;20031;-83
2022/05/08 02:42:54;;;;;;;28.77;3.13;;;5.40;69.00;;;;;;4126284;28;21607;-82
2022/05/08 02:44:54;;;;;;;25.02;2.88;;;5.40;69.10;;;;;;4118375;28;20510;-82
2022/05/08 02:46:55;;;;;;;23.05;3.05;;;5.40;69.20;;;;;;4112653;28;20653;-84
2022/05/08 02:48:56;;;;;;;19.60;3.40;;;5.40;69.20;;;;;;4104348;28;20046;-82
2022/05/08 02:50:57;;;;;;;19.42;2.88;;;5.40;69.10;;;;;;4107959;28;20698;-83
2022/05/08 02:52:58;;;;;;;24.10;3.28;;;5.40;69.10;;;;;;4122726;28;20089;-82
2022/05/08 02:58:32;;;;;;;24.75;3.58;;;5.50;69.20;;;;;;4121273;28;20038;-83
2022/05/08 02:59:42;;;;;;;21.38;3.13;;;5.40;69.30;;;;;;4122724;28;20027;-82
2022/05/08 03:01:42;;;;;;;22.98;3.05;;;5.30;69.40;;;;;;4104318;28;20034;-83
2022/05/08 03:03:43;;;;;;;22.80;2.53;;;5.40;69.50;;;;;;4122811;28;20027;-82
2022/05/08 03:05:47;;;;;;;24.42;3.63;;;5.30;69.50;;;;;;4126301;28;20077;-84
2022/05/08 03:07:48;;;;;;;25.90;2.55;;;5.40;69.60;;;;;;4102622;28;20038;-82
2022/05/08 03:09:48;;;;;;;17.13;2.67;;;5.30;69.60;;;;;;4121131;28;20116;-81
2022/05/08 03:11:49;;;;;;;17.05;2.28;;;5.30;69.60;;;;;;4120930;28;20106;-82
2022/05/08 03:13:50;;;;;;;21.25;3.08;;;5.30;69.60;;;;;;4103200;28;20101;-83
2022/05/08 03:15:50;;;;;;;19.80;2.85;;;5.30;69.70;;;;;;4104833;28;21912;-83
2022/05/08 03:17:51;;;;;;;20.80;2.97;;;5.30;69.60;;;;;;4121200;28;20511;-83
2022/05/08 03:19:51;;;;;;;19.55;2.63;;;5.30;69.50;;;;;;4118841;28;20057;-83
2022/05/08 03:21:52;;;;;;;23.80;2.67;;;5.30;69.50;;;;;;4126019;28;20033;-82
2022/05/08 03:23:53;;;;;;;22.33;2.72;;;5.30;69.40;;;;;;4125255;28;20082;-83
2022/05/08 03:25:54;;;;;;;22.38;2.70;;;5.30;69.40;;;;;;4125678;28;20050;-82
2022/05/08 03:27:54;;;;;;;20.33;2.83;;;5.30;69.30;;;;;;4103561;28;20227;-82
2022/05/08 03:29:55;;;;;;;17.20;2.25;;;5.30;69.30;;;;;;4106862;28;20102;-82
2022/05/08 03:31:56;;;;;;;26.38;3.70;;;5.30;69.40;;;;;;4108617;28;20094;-83
2022/05/08 03:33:56;;;;;;;20.83;2.95;;;5.30;69.60;;;;;;4121895;28;20145;-83
2022/05/08 03:35:58;;;;;;;27.27;3.45;;;5.30;69.70;;;;;;4104868;28;20035;-81
2022/05/08 03:37:59;;;;;;;18.48;2.70;;;5.30;69.80;;;;;;4123070;28;20027;-82
2022/05/08 03:39:59;;;;;;;23.05;3.22;;;5.30;69.70;;;;;;4116512;28;20030;-82
2022/05/08 03:42:00;;;;;;;23.75;2.97;;;5.30;69.80;;;;;;4125214;28;20019;-82
2022/05/08 03:44:00;;;;;;;21.13;2.67;;;5.30;70.50;;;;;;4103554;28;20074;-83
2022/05/08 03:46:01;;;;;;;23.00;3.00;;;5.30;69.90;;;;;;4107130;28;20062;-83
2022/05/08 03:48:03;;;;;;;16.92;2.50;;;5.30;70.00;;;;;;4120251;28;20130;-83
2022/05/08 03:50:06;;;;;;;22.65;3.20;;;5.30;70.10;;;;;;4106109;28;20065;-82
2022/05/08 03:52:07;;;;;;;22.33;3.55;;;5.30;70.10;;;;;;4121134;28;20038;-83
2022/05/08 03:54:09;;;;;;;22.15;3.20;;;5.30;70.30;;;;;;4120828;28;21641;-84
2022/05/08 03:56:10;;;;;;;18.23;3.13;;;5.30;70.30;;;;;;4105201;28;20433;-82
2022/05/08 03:58:10;;;;;;;17.45;2.65;;;5.20;70.20;;;;;;4118053;28;20162;-82
2022/05/08 04:00:13;;;;;;;28.73;3.47;;;5.30;70.30;;;;;;4120656;28;20197;-83
2022/05/08 04:02:13;;;;;;;15.43;2.47;;;5.40;70.40;;;;;;4119114;28;20886;-84
2022/05/08 04:04:14;;;;;;;17.80;3.38;;;5.30;70.30;;;;;;4119954;28;20097;-83
2022/05/08 04:06:15;;;;;;;19.33;2.60;;;5.40;70.50;;;;;;4121907;28;20032;-81
2022/05/08 04:08:16;;;;;;;27.95;4.13;;;5.30;70.30;;;;;;4116653;28;20034;-82
2022/05/08 04:10:16;;;;;;;29.98;2.85;;;5.40;70.30;;;;;;4121677;28;20029;-82
2022/05/08 04:12:17;;;;;;;23.83;2.85;;;5.40;71.10;;;;;;4105044;28;20027;-82
2022/05/08 04:14:17;;;;;;;23.10;3.40;;;5.40;70.40;;;;;;4120132;28;20121;-83
2022/05/08 04:16:19;;;;;;;24.15;3.65;;;5.40;70.50;;;;;;4120264;28;20129;-83
2022/05/08 04:18:19;;;;;;;27.42;3.47;;;5.40;70.50;;;;;;4120108;28;20169;-82
2022/05/08 04:20:20;;;;;;;17.45;2.70;;;5.40;70.50;;;;;;4102399;28;20556;-82
2022/05/08 04:24:41;;;;;;;26.13;2.63;;;5.40;70.50;;;;;;4123446;28;20031;-82
2022/05/08 04:26:42;;;;;;;15.52;2.65;;;5.50;70.50;;;;;;4119592;28;20030;-82
2022/05/08 04:28:43;;;;;;;20.70;2.70;;;5.50;70.60;;;;;;4121166;28;20038;-82
2022/05/08 04:30:43;;;;;;;23.50;3.03;;;5.60;70.60;;;;;;4116622;28;20056;-82
2022/05/08 04:32:44;;;;;;;33.63;2.85;;;5.50;70.60;;;;;;4096291;28;20035;-84
2022/05/08 04:34:45;;;;;;;25.55;3.28;;;5.50;70.60;;;;;;4115598;28;20077;-83
2022/05/08 04:36:45;;;;;;;24.58;3.38;;;5.60;70.70;;;;;;4109351;28;20050;-83
2022/05/08 04:38:46;;;;;;;25.48;2.65;;;5.60;70.70;;;;;;4124842;28;21683;-83
2022/05/08 04:40:47;;;;;;;26.33;3.40;;;5.60;70.70;;;;;;4122804;28;20483;-84
2022/05/08 04:42:47;;;;;;;21.92;3.20;;;5.70;70.70;;;;;;4120601;28;20033;-84
2022/05/08 04:44:48;;;;;;;25.77;3.33;;;5.70;70.70;;;;;;4117774;28;20026;-84
2022/05/08 04:46:48;;;;;;;22.77;3.40;;;5.70;70.60;;;;;;4119235;28;20745;-83
2022/05/08 04:48:49;;;;;;;18.25;2.45;;;5.70;70.60;;;;;;4120978;28;20033;-83
2022/05/08 04:50:50;;;;;;;37.13;3.50;;;5.80;70.60;;;;;;4125931;28;20057;-82
2022/05/08 04:52:50;;;;;;;19.77;3.17;;;5.80;70.70;;;;;;4118973;28;20105;-84
2022/05/08 04:54:51;;;;;;;16.42;2.72;;;5.90;70.70;;;;;;4122227;28;20181;-83
2022/05/08 04:56:52;;;;;;;24.30;3.10;;;5.90;70.60;;;;;;4103362;28;20023;-83
2022/05/08 04:58:52;;;;;;;20.08;3.05;;;5.90;70.60;;;;;;4110692;28;20031;-84
2022/05/08 05:00:53;;;;;;;22.80;3.20;;;6.00;70.60;;;;;;4115980;28;20023;-84
2022/05/08 05:02:54;;;;;;;25.23;3.03;;;6.00;70.60;;;;;;4101671;28;20442;-83
2022/05/08 05:04:55;;;;;;;22.50;3.20;;;6.00;70.60;;;;;;4105070;28;20035;-82
2022/05/08 05:06:55;;;;;;;20.15;3.53;;;6.10;70.70;;;;;;4123084;28;20038;-82
2022/05/08 05:08:56;;;;;;;21.05;3.08;;;6.20;70.70;;;;;;4122189;28;20038;-82
2022/05/08 05:10:56;;;;;;;22.38;3.05;;;6.20;70.70;;;;;;4123454;28;20030;-83
2022/05/08 05:12:57;;;;;;;29.33;3.28;;;6.20;70.50;;;;;;4103332;28;20074;-83
2022/05/08 05:14:59;;;;;;;32.63;3.70;;;6.30;71.20;;;;;;4118169;28;20046;-83
2022/05/08 05:17:00;;;;;;;32.45;3.03;;;6.30;70.40;;;;;;4120221;28;20109;-83
2022/05/08 05:19:01;;;;;;;26.50;2.88;;;6.40;70.30;;;;;;4117239;28;20148;-83
2022/05/08 05:21:01;;;;;;;15.10;3.10;;;6.40;70.30;;;;;;4119905;28;20077;-81
2022/05/08 05:23:02;;;;;;;28.08;3.25;;;6.40;70.20;;;;;;4120743;28;20038;-81
2022/05/08 05:25:03;;;;;;;23.80;3.10;;;6.50;70.20;;;;;;4103673;28;20030;-81
2022/05/08 05:27:04;;;;;;;21.45;2.88;;;6.50;70.10;;;;;;4120071;28;20085;-83
2022/05/08 05:29:05;;;;;;;17.50;3.13;;;6.60;70.00;;;;;;4117630;28;20627;-81
2022/05/08 05:31:05;;;;;;;22.95;3.17;;;6.70;70.00;;;;;;4096866;28;20568;-82
2022/05/08 05:33:07;;;;;;;21.52;2.88;;;6.70;69.90;;;;;;4115644;28;20053;-81
2022/05/08 05:35:08;;;;;;;21.38;3.13;;;6.70;69.80;;;;;;4100719;28;20026;-81
2022/05/08 05:37:09;;;;;;;25.98;3.08;;;6.80;69.60;;;;;;4103215;28;20035;-81
2022/05/08 05:39:09;;;;;;;19.02;3.25;;;6.80;69.70;;;;;;4104220;28;20102;-82
2022/05/08 05:41:10;;;;;;;27.02;2.90;;;6.90;69.60;;;;;;4118981;28;20019;-84
2022/05/08 05:43:11;;;;;;;27.83;2.80;;;6.90;69.40;;;;;;4123117;28;20057;-83
2022/05/08 05:45:12;;;;;;;18.95;2.90;;;7.00;69.50;;;;;;4127043;28;20038;-82
2022/05/08 05:49:31;;;;;;;20.55;3.38;;;7.10;69.40;;;;;;4118879;28;20030;-82
2022/05/08 05:51:32;;;;;;;24.10;2.90;;;7.20;69.40;;;;;;4120337;28;20041;-82
2022/05/08 05:53:34;;;;;;;17.55;2.75;;;7.20;69.10;;;;;;4123215;28;20097;-82
2022/05/08 05:55:34;;;;;;;19.45;2.97;;;7.20;68.90;;;;;;4118672;28;20034;-83
2022/05/08 05:57:36;;;;;;;20.13;3.40;;;7.30;68.80;;;;;;4086837;28;20027;-83
2022/05/08 05:59:37;;;;;;;26.23;3.42;;;7.40;69.10;;;;;;4096784;28;20042;-82
2022/05/08 06:01:37;;;;;;;18.50;2.97;;;7.40;68.70;;;;;;4112853;28;20054;-82
2022/05/08 06:03:38;;;;;;;23.23;3.55;;;7.50;68.20;;;;;;4117635;28;20104;-82
2022/05/08 06:05:39;;;;;;;26.15;3.20;;;7.50;68.20;;;;;;4118078;28;20022;-82
2022/05/08 06:07:42;;;;;;;24.33;3.22;;;7.60;68.00;;;;;;4115774;28;20065;-82
2022/05/08 06:09:42;;;;;;;21.37;3.07;;;7.60;67.80;;;;;;4110327;28;20038;-81
2022/05/08 06:11:44;;;;;;;17.52;2.60;;;7.60;67.90;;;;;;4099027;28;20531;-83
2022/05/08 06:13:44;;;;;;;20.85;3.47;;;7.70;67.60;;;;;;4113682;28;20655;-82
2022/05/08 06:15:45;;;;;;;18.83;3.03;;;7.70;67.40;;;;;;4092849;28;20062;-82
2022/05/08 06:17:46;;;;;;;15.13;2.80;;;7.80;67.30;;;;;;4097236;28;20030;-81
2022/05/08 06:19:46;;;;;;;18.23;2.53;;;7.80;67.20;;;;;;4110379;28;20030;-82
2022/05/08 06:21:47;;;;;;;18.42;2.55;;;7.90;67.20;;;;;;4108635;28;20109;-82
2022/05/08 06:23:48;;;;;;;20.08;3.00;;;7.90;67.10;;;;;;4116361;28;20030;-82
2022/05/08 06:25:48;;;;;;;30.45;3.78;;;8.00;67.40;;;;;;4116269;28;20119;-83
2022/05/08 06:27:49;;;;;;;22.23;3.53;;;8.00;67.30;;;;;;4104771;28;20038;-83
2022/05/08 06:29:50;;;;;;;27.70;3.60;;;8.10;67.20;;;;;;4112674;28;20034;-82
2022/05/08 06:31:51;;;;;;;20.80;3.20;;;8.10;67.10;;;;;;4098832;28;20036;-83
2022/05/08 06:33:52;;;;;;;23.73;2.83;;;8.20;67.00;;;;;;4117157;28;20026;-81
2022/05/08 06:35:54;;;;;;;17.98;3.33;;;8.30;67.00;;;;;;4115746;28;20089;-81
2022/05/08 06:37:54;;;;;;;22.55;3.10;;;8.30;66.60;;;;;;4117983;28;20042;-81
2022/05/08 06:39:55;;;;;;;21.98;2.97;;;8.40;66.70;;;;;;4113984;28;20145;-83
2022/05/08 06:41:56;;;;;;;20.40;2.70;;;8.50;66.50;;;;;;4100024;28;20054;-82
2022/05/08 06:43:56;;;;;;;23.67;2.90;;;8.60;66.20;;;;;;4095335;28;20088;-84
2022/05/08 06:45:57;;;;;;;17.95;2.90;;;8.60;65.90;;;;;;4105990;28;20043;-84
2022/05/08 06:47:58;;;;;;;27.40;3.38;;;8.70;65.80;;;;;;4118301;28;20030;-84
2022/05/08 06:49:59;;;;;;;22.73;2.90;;;8.70;65.70;;;;;;4113913;28;20038;-83
2022/05/08 06:51:59;;;;;;;16.85;2.67;;;8.80;65.70;;;;;;4109146;28;20058;-84
2022/05/08 06:54:01;;;;;;;18.08;3.15;;;8.90;65.60;;;;;;4123575;28;20054;-84
2022/05/08 06:56:01;;;;;;;31.08;3.03;;;9.00;65.70;;;;;;4123706;28;20555;-83
2022/05/08 06:58:03;;;;;;;23.42;3.40;;;9.00;65.00;;;;;;4129621;28;20080;-84
2022/05/08 07:02:24;;;;;;;28.23;2.60;;;9.20;64.10;;;;;;4127193;28;20325;-83
2022/05/08 07:04:24;;;;;;;18.77;3.03;;;9.30;63.80;;;;;;4127231;28;20045;-83
2022/05/08 07:06:25;;;;;;;17.63;3.28;;;9.30;63.30;;;;;;4128702;28;20026;-83
2022/05/08 07:08:26;;;;;;;33.38;3.53;;;9.40;63.00;;;;;;4123654;28;20037;-83
2022/05/08 07:10:27;;;;;;;18.13;3.28;;;9.40;62.70;;;;;;4123745;28;20050;-84
2022/05/08 07:12:27;;;;;;;20.30;3.35;;;9.50;62.60;;;;;;4124582;28;20035;-82
2022/05/08 07:14:28;;;;;;;17.55;2.58;;;9.50;62.20;;;;;;4123909;28;20117;-83
2022/05/08 07:16:29;;;;;;;20.38;3.10;;;9.60;62.10;;;;;;4088312;28;20031;-82
2022/05/08 07:18:29;;;;;;;23.10;2.70;;;9.70;62.00;;;;;;4121876;28;20035;-83
2022/05/08 07:20:30;;;;;;;13.98;2.72;;;9.70;61.80;;;;;;4123217;28;20027;-83
2022/05/08 07:22:33;;;;;;;18.17;2.78;;;9.80;61.80;;;;;;4122001;28;20069;-83
2022/05/08 07:24:33;;;;;;;16.60;2.80;;;9.80;61.50;;;;;;4123282;28;20864;-82
2022/05/08 07:26:36;;;;;;;21.48;2.65;;;9.80;61.10;;;;;;4127714;28;20037;-83
2022/05/08 07:28:37;;;;;;;22.48;3.10;;;9.90;61.20;;;;;;4115888;28;20038;-83
2022/05/08 07:30:37;;;;;;;19.33;3.35;;;10.10;60.90;;;;;;4107203;28;20034;-83
2022/05/08 07:32:38;;;;;;;22.65;2.90;;;10.00;60.60;;;;;;4120337;28;20035;-83
2022/05/08 07:36:58;;;;;;;20.65;3.28;;;10.20;60.90;;;;;;4121844;28;20031;-82
2022/05/08 07:38:58;;;;;;;19.85;2.88;;;10.30;60.30;;;;;;4119532;28;20027;-82
2022/05/08 07:41:00;;;;;;;17.40;2.70;;;10.30;60.00;;;;;;4123168;28;20088;-84
2022/05/08 07:43:01;;;;;;;21.98;2.70;;;10.40;60.10;;;;;;4118246;28;20037;-84
2022/05/08 07:45:03;;;;;;;15.02;2.35;;;10.50;60.00;;;;;;4120721;28;20042;-83
2022/05/08 07:47:04;;;;;;;18.92;3.13;;;10.60;60.20;;;;;;4101458;28;20031;-83
2022/05/08 07:49:04;;;;;;;23.02;3.10;;;10.60;59.90;;;;;;4122292;28;20508;-82
2022/05/08 07:51:05;;;;;;;21.40;2.55;;;10.80;60.10;;;;;;4107105;28;20750;-83
2022/05/08 07:53:06;;;;;;;20.63;2.60;;;10.80;59.60;;;;;;4125245;28;20794;-83
2022/05/08 07:55:07;;;;;;;24.25;2.70;;;10.90;59.10;;;;;;4119778;28;20030;-85
2022/05/08 07:57:08;;;;;;;17.30;2.30;;;11.00;59.30;;;;;;4124948;28;20061;-83
2022/05/08 07:59:09;;;;;;;17.48;2.42;;;11.00;59.00;;;;;;4126905;28;20029;-84
2022/05/08 08:01:10;;;;;;;21.30;2.50;;;11.20;59.10;;;;;;4123440;28;20745;-83
2022/05/08 08:03:11;;;;;;;12.95;2.65;;;11.20;59.10;;;;;;4125452;28;20014;-83
2022/05/08 08:05:11;;;;;;;10.52;2.00;;;11.30;58.40;;;;;;4108473;28;20033;-83
2022/05/08 08:07:12;;;;;;;13.82;2.08;;;11.40;57.90;;;;;;4124154;28;20068;-84
2022/05/08 08:09:12;;;;;;;15.60;2.63;;;11.40;57.30;;;;;;4128340;28;20033;-82
2022/05/08 08:11:13;;;;;;;15.95;2.53;;;11.50;56.90;;;;;;4129146;28;20031;-83
2022/05/08 08:13:14;;;;;;;18.73;2.78;;;11.60;57.00;;;;;;4128338;28;20516;-84
2022/05/08 08:15:14;;;;;;;12.48;2.10;;;11.60;57.00;;;;;;4107218;28;20435;-84
2022/05/08 08:17:15;;;;;;;13.77;2.15;;;11.70;56.20;;;;;;4109524;28;20059;-83
2022/05/08 08:19:16;;;;;;;15.82;2.28;;;11.80;56.30;;;;;;4131606;28;20474;-82
2022/05/08 08:21:16;;;;;;;12.52;2.17;;;11.80;55.40;;;;;;4130113;28;20101;-83
2022/05/08 08:23:17;;;;;;;11.68;2.08;;;11.90;55.20;;;;;;4123412;28;20031;-83
2022/05/08 08:25:18;;;;;;;11.52;2.10;;;11.90;55.20;;;;;;4127950;28;20037;-83
2022/05/08 08:27:21;;;;;;;15.45;2.30;;;12.00;54.90;;;;;;4121871;28;20026;-83
2022/05/08 08:29:22;;;;;;;12.40;2.30;;;12.10;54.60;;;;;;4123211;28;20026;-83
2022/05/08 08:31:23;;;;;;;10.15;2.20;;;12.10;54.60;;;;;;4118790;28;20100;-83
2022/05/08 08:33:23;;;;;;;12.77;1.85;;;12.20;54.70;;;;;;4119134;28;20034;-84
2022/05/08 08:35:24;;;;;;;19.40;2.08;;;12.30;54.40;;;;;;4085826;28;20039;-84
2022/05/08 08:37:25;;;;;;;18.05;1.90;;;12.40;54.00;;;;;;4115917;28;20072;-84
2022/05/08 08:39:26;;;;;;;13.25;2.40;;;12.40;53.40;;;;;;4121089;28;20019;-84
2022/05/08 08:41:31;;;;;;;15.23;1.75;;;12.50;53.40;;;;;;4100892;28;20050;-84
2022/05/08 08:47:42;;;;;;;11.80;2.30;;;12.60;53.30;;;;;;4118525;28;20108;-84
2022/05/08 08:48:28;;;;;;;8.38;2.42;;;12.80;52.70;;;;;;4117906;28;20045;-84
2022/05/08 08:50:29;;;;;;;9.02;1.80;;;12.90;52.00;;;;;;4100021;28;20058;-84
2022/05/08 08:52:30;;;;;;;14.63;2.03;;;12.90;52.00;;;;;;4122116;28;20548;-85
2022/05/08 08:54:30;;;;;;;11.77;2.05;;;13.00;51.50;;;;;;4106555;28;20090;-84
2022/05/08 08:56:31;;;;;;;6.03;1.60;;;13.10;51.00;;;;;;4121114;28;20042;-84
2022/05/08 08:58:35;;;;;;;13.93;2.28;;;13.10;51.10;;;;;;4102596;28;20142;-84
2022/05/08 09:00:35;;;;;;;15.63;2.13;;;13.10;50.90;;;;;;4114885;28;20058;-85
2022/05/08 09:02:37;;;;;;;19.42;2.30;;;13.20;50.50;;;;;;4106044;28;20290;-84
2022/05/08 09:04:37;;;;;;;11.38;2.15;;;13.20;50.60;;;;;;4120060;28;20089;-85
2022/05/08 09:06:40;;;;;;;18.15;2.10;;;13.30;51.10;;;;;;4100217;28;20043;-85
2022/05/08 09:08:40;;;;;;;10.33;2.07;;;13.30;51.30;;;;;;4118880;28;21225;-83
2022/05/08 09:10:44;;;;;;;12.85;1.73;;;13.40;51.60;;;;;;4121574;28;20306;-84
2022/05/08 09:12:54;;;;;;;11.35;1.65;;;13.50;50.70;;;;;;4108406;28;20117;-85
2022/05/08 09:14:54;;;;;;;6.63;1.90;;;13.50;50.70;;;;;;4116723;28;20085;-83
2022/05/08 09:16:55;;;;;;;12.82;2.22;;;13.60;50.20;;;;;;4102824;28;20035;-83
2022/05/08 09:18:56;;;;;;;9.23;1.92;;;13.60;50.00;;;;;;4103867;28;20041;-83
2022/05/08 09:21:54;;;;;;;11.57;2.40;;;13.80;49.80;;;;;;4100260;28;20034;-83
2022/05/08 09:23:22;;;;;;;8.27;1.83;;;13.80;49.60;;;;;;4121843;28;20062;-83
2022/05/08 09:25:22;;;;;;;10.30;1.70;;;13.80;49.40;;;;;;4121114;28;20041;-83
2022/05/08 09:27:23;;;;;;;13.90;2.25;;;13.90;49.60;;;;;;4113055;28;20022;-83
2022/05/08 09:29:24;;;;;;;12.05;2.03;;;14.00;49.70;;;;;;4095679;28;20118;-82
2022/05/08 09:31:24;;;;;;;8.90;1.80;;;14.00;49.20;;;;;;4098700;28;20034;-83
2022/05/08 09:33:26;;;;;;;12.00;2.28;;;14.10;49.40;;;;;;4121239;28;20049;-82
2022/05/08 09:35:42;;;;;;;9.38;2.03;;;14.20;49.20;;;;;;4116405;28;20047;-84
2022/05/08 09:37:53;;;;;;;6.47;1.40;;;14.20;48.70;;;;;;4120250;28;20053;-84
2022/05/08 09:40:16;;;;;;;7.00;1.60;;;14.30;48.30;;;;;;4117506;28;20022;-82
2022/05/08 09:42:36;;;;;;;7.97;1.48;;;14.40;48.20;;;;;;4119130;28;20022;-83
2022/05/08 09:45:04;;;;;;;7.57;1.60;;;14.40;47.50;;;;;;4117321;28;20030;-82
2022/05/08 09:47:05;;;;;;;9.18;2.03;;;14.50;46.90;;;;;;4101681;28;21052;-83
2022/05/08 09:49:06;;;;;;;5.63;1.58;;;14.50;46.90;;;;;;4120043;28;20042;-83
2022/05/08 09:51:09;;;;;;;9.43;1.98;;;14.60;47.10;;;;;;4120002;28;20484;-83
2022/05/08 09:53:10;;;;;;;10.23;1.55;;;14.60;47.00;;;;;;4119667;28;20107;-83
2022/05/08 09:55:12;;;;;;;14.93;2.15;;;14.70;46.90;;;;;;4100395;28;20035;-83
2022/05/08 09:57:13;;;;;;;13.32;2.20;;;14.70;46.90;;;;;;4130983;28;20179;-83
2022/05/08 09:59:15;;;;;;;8.23;2.20;;;14.70;46.70;;;;;;4121545;28;20037;-82
2022/05/08 10:01:16;;;;;;;12.25;2.00;;;14.80;45.10;;;;;;4118623;28;20030;-82
2022/05/08 10:03:17;;;;;;;7.45;1.40;;;14.80;45.90;;;;;;4104906;28;20082;-83
2022/05/08 10:05:18;;;;;;;6.88;1.70;;;14.80;46.40;;;;;;4100513;28;20031;-84
2022/05/08 10:07:21;;;;;;;10.80;2.13;;;14.80;45.90;;;;;;4119151;28;20030;-84
2022/05/08 10:14:08;;;;;;;13.07;1.63;;;14.90;45.10;;;;;;4115651;28;20038;-83
2022/05/08 10:16:47;;;;;;;6.70;1.42;;;14.90;45.50;;;;;;4120634;28;20412;-84
2022/05/08 10:18:47;;;;;;;7.90;1.80;;;15.00;44.90;;;;;;4125184;28;20038;-83
2022/05/08 10:21:06;;;;;;;7.65;1.42;;;15.00;44.80;;;;;;4118862;28;20041;-83
2022/05/08 10:23:07;;;;;;;4.95;1.80;;;15.00;44.00;;;;;;4124738;28;20045;-83
2022/05/08 10:25:15;;;;;;;7.15;1.60;;;15.10;44.80;;;;;;4124484;28;20101;-83
2022/05/08 10:27:31;;;;;;;9.00;1.52;;;15.10;44.00;;;;;;4124216;28;20032;-83
2022/05/08 10:29:32;;;;;;;9.43;1.65;;;15.10;43.70;;;;;;4100901;28;20050;-84
2022/05/08 10:31:51;;;;;;;11.25;1.85;;;15.10;43.70;;;;;;4116733;28;20054;-84
2022/05/08 10:34:05;;;;;;;6.40;1.40;;;15.10;42.30;;;;;;4116457;28;20018;-83
2022/05/08 10:36:06;;;;;;;10.68;2.20;;;15.20;43.20;;;;;;4100650;28;20054;-84
2022/05/08 10:38:07;;;;;;;8.93;1.65;;;15.20;42.00;;;;;;4099915;28;20042;-83
2022/05/08 10:40:28;;;;;;;11.38;1.52;;;15.20;41.40;;;;;;4114900;28;20725;-82
2022/05/08 10:42:39;;;;;;;7.45;1.70;;;15.30;42.10;;;;;;4077668;28;20070;-83
2022/05/08 10:44:42;;;;;;;7.88;1.65;;;15.30;42.50;;;;;;4119136;28;20112;-83
2022/05/08 10:46:44;;;;;;;;;;;15.30;43.20;;;;;;4116983;28;20049;-84
2022/05/08 10:48:45;;;;;;;7.13;1.60;;;15.40;43.40;;;;;;4113929;28;19980;-84
2022/05/08 10:50:46;;;;;;;14.07;2.00;;;15.40;43.20;;;;;;4111300;28;20796;-83
2022/05/08 10:52:47;;;;;;;5.53;1.30;;;15.50;43.00;;;;;;4110750;28;20460;-83